createdAt,value
2019-05-09T00:00:27.676Z,61.96
2019-05-09T00:02:54.112Z,62.05
2019-05-09T00:05:22.723Z,62.27
2019-05-09T00:07:48.115Z,62.54
2019-05-09T00:10:14.378Z,62.53
2019-05-09T00:12:40.415Z,62.98
2019-05-09T00:15:06.535Z,63.81
2019-05-09T00:17:33.785Z,63.61
2019-05-09T00:20:03.570Z,63.57
2019-05-09T00:22:29.570Z,63.43
2019-05-09T00:24:55.596Z,63.13
2019-05-09T00:27:23.140Z,63.20
2019-05-09T00:29:53.002Z,63.16
2019-05-09T00:32:34.095Z,63.31
2019-05-09T00:40:34.347Z,63.47
2019-05-09T00:43:00.315Z,63.19
2019-05-09T00:45:28.318Z,63.47
2019-05-09T00:47:54.426Z,63.45
2019-05-09T00:50:20.535Z,63.49
2019-05-09T00:52:46.442Z,63.58
2019-05-09T00:55:13.237Z,63.57
2019-05-09T00:57:39.355Z,63.61
2019-05-09T01:00:08.971Z,63.89
2019-05-09T01:02:35.157Z,63.81
2019-05-09T01:05:01.160Z,63.74
2019-05-09T01:07:27.066Z,64.09
2019-05-09T01:09:54.306Z,64.21
2019-05-09T01:12:20.531Z,64.29
2019-05-09T01:14:46.535Z,64.43
2019-05-09T01:17:13.603Z,64.29
2019-05-09T01:19:39.988Z,64.10
2019-05-09T01:22:06.114Z,64.04
2019-05-09T01:24:33.740Z,63.97
2019-05-09T01:27:00.017Z,63.96
2019-05-09T01:29:26.142Z,63.95
2019-05-09T01:31:54.202Z,64.35
2019-05-09T01:34:23.929Z,64.41
2019-05-09T01:37:04.054Z,64.45
2019-05-09T01:39:30.306Z,64.90
2019-05-09T01:41:56.444Z,64.67
2019-05-09T01:44:23.947Z,65.20
2019-05-09T01:46:50.197Z,64.95
2019-05-09T01:49:16.207Z,64.78
2019-05-09T01:51:44.356Z,64.92
2019-05-09T01:54:10.310Z,64.60
2019-05-09T01:56:36.427Z,64.76
2019-05-09T01:59:03.115Z,64.75
2019-05-09T02:01:29.438Z,64.90
2019-05-09T02:03:55.447Z,65.02
2019-05-09T02:06:24.126Z,65.15
2019-05-09T02:08:49.697Z,64.93
2019-05-09T02:11:15.810Z,64.97
2019-05-09T02:13:44.058Z,65.47
2019-05-09T02:16:13.998Z,65.29
2019-05-09T02:18:44.612Z,64.96
2019-05-09T02:21:13.852Z,64.82
2019-05-09T02:23:38.841Z,64.91
2019-05-09T02:26:04.957Z,65.06
2019-05-09T02:28:30.956Z,65.00
2019-05-09T02:30:56.964Z,65.05
2019-05-09T02:33:24.991Z,64.71
2019-05-09T02:35:56.683Z,64.64
2019-05-09T02:38:20.015Z,64.62
2019-05-09T02:40:48.696Z,64.44
2019-05-09T02:43:14.248Z,64.42
2019-05-09T02:45:52.636Z,64.56
2019-05-09T02:48:18.623Z,64.56
2019-05-09T02:50:44.285Z,64.11
2019-05-09T02:53:10.400Z,64.22
2019-05-09T02:55:38.738Z,63.93
2019-05-09T02:58:08.246Z,63.65
2019-05-09T03:00:48.373Z,63.26
2019-05-09T03:05:59.666Z,63.06
2019-05-09T03:08:25.783Z,63.21
2019-05-09T03:10:51.911Z,62.96
2019-05-09T03:13:19.076Z,62.93
2019-05-09T03:15:49.348Z,62.78
2019-05-09T03:18:14.787Z,63.11
2019-05-09T03:21:00.795Z,63.18
2019-05-09T03:23:28.495Z,63.00
2019-05-09T03:25:54.835Z,63.04
2019-05-09T03:31:13.078Z,62.93
2019-05-09T03:33:40.482Z,63.28
2019-05-09T03:36:07.805Z,63.47
2019-05-09T03:38:34.150Z,63.55
2019-05-09T03:41:00.254Z,63.37
2019-05-09T03:43:27.511Z,63.70
2019-05-09T03:45:58.634Z,63.74
2019-05-09T03:51:23.795Z,63.44
2019-05-09T03:53:49.840Z,62.70
2019-05-09T03:56:18.232Z,62.37
2019-05-09T03:58:44.291Z,62.30
2019-05-09T04:01:10.858Z,62.28
2019-05-09T04:03:37.887Z,62.25
2019-05-09T04:06:04.114Z,62.02
2019-05-09T04:08:30.145Z,62.00
2019-05-09T04:10:58.661Z,61.61
2019-05-09T04:13:28.154Z,61.46
2019-05-09T04:15:54.054Z,61.57
2019-05-09T04:18:20.063Z,61.42
2019-05-09T04:20:48.169Z,60.86
2019-05-09T04:23:14.134Z,60.88
2019-05-09T04:25:50.955Z,60.77
2019-05-09T04:28:17.739Z,60.97
2019-05-09T04:30:43.931Z,61.08
2019-05-09T04:33:10.082Z,60.76
2019-05-09T04:35:38.175Z,60.78
2019-05-09T04:38:04.227Z,60.96
2019-05-09T04:40:32.054Z,60.91
2019-05-09T04:43:10.896Z,60.38
2019-05-09T04:45:28.465Z,59.98
2019-05-09T04:47:54.511Z,59.96
2019-05-09T04:50:24.835Z,59.72
2019-05-09T04:52:48.560Z,59.83
2019-05-09T04:55:18.085Z,59.21
2019-05-09T04:57:43.526Z,59.16
2019-05-09T05:00:11.842Z,59.38
2019-05-09T05:02:42.556Z,59.52
2019-05-09T05:05:08.888Z,59.39
2019-05-09T05:07:37.599Z,59.32
2019-05-09T05:10:08.786Z,59.42
2019-05-09T05:12:33.734Z,59.67
2019-05-09T05:14:59.741Z,59.80
2019-05-09T05:17:28.310Z,59.69
2019-05-09T05:19:54.332Z,59.95
2019-05-09T05:22:24.836Z,59.72
2019-05-09T05:24:55.628Z,59.84
2019-05-09T05:27:20.662Z,59.37
2019-05-09T05:29:47.630Z,59.05
2019-05-09T05:32:18.585Z,58.89
2019-05-09T05:34:58.280Z,59.07
2019-05-09T05:37:24.478Z,58.68
2019-05-09T05:39:50.491Z,58.60
2019-05-09T05:42:17.609Z,58.67
2019-05-09T05:44:43.654Z,58.60
2019-05-09T05:47:20.723Z,58.59
2019-05-09T05:49:48.782Z,58.96
2019-05-09T05:52:15.015Z,59.03
2019-05-09T05:54:40.915Z,59.12
2019-05-09T05:57:08.417Z,59.47
2019-05-09T05:59:40.060Z,59.23
2019-05-09T06:02:03.318Z,59.60
2019-05-09T06:04:29.404Z,59.74
2019-05-09T06:06:55.317Z,60.10
2019-05-09T06:09:21.335Z,59.92
2019-05-09T06:11:48.511Z,59.93
2019-05-09T06:14:15.207Z,59.19
2019-05-09T06:16:41.252Z,58.89
2019-05-09T06:19:09.025Z,59.11
2019-05-09T06:21:40.091Z,58.78
2019-05-09T06:24:08.464Z,58.90
2019-05-09T06:26:34.260Z,59.09
2019-05-09T06:29:00.396Z,59.01
2019-05-09T06:31:28.428Z,58.85
2019-05-09T06:33:54.434Z,58.90
2019-05-09T06:36:20.543Z,58.88
2019-05-09T06:38:48.793Z,58.49
2019-05-09T06:41:14.507Z,58.90
2019-05-09T06:43:42.423Z,59.28
2019-05-09T06:46:18.246Z,58.75
2019-05-09T06:48:44.262Z,59.23
2019-05-09T06:51:10.310Z,59.23
2019-05-09T06:53:38.063Z,59.88
2019-05-09T06:56:04.442Z,60.26
2019-05-09T06:58:31.174Z,60.07
2019-05-09T07:00:59.183Z,60.19
2019-05-09T07:03:28.346Z,60.02
2019-05-09T07:06:02.270Z,61.24
2019-05-09T07:08:31.500Z,60.97
2019-05-09T07:10:58.427Z,60.90
2019-05-09T07:13:24.737Z,61.19
2019-05-09T07:15:50.856Z,61.83
2019-05-09T07:18:18.385Z,62.31
2019-05-09T07:20:44.669Z,62.27
2019-05-09T07:23:10.678Z,63.11
2019-05-09T07:25:41.890Z,63.44
2019-05-09T07:28:07.902Z,64.08
2019-05-09T07:30:38.885Z,63.43
2019-05-09T07:33:08.524Z,63.14
2019-05-09T07:35:34.619Z,63.30
2019-05-09T07:38:00.733Z,63.87
2019-05-09T07:40:30.290Z,63.99
2019-05-09T07:42:54.658Z,64.48
2019-05-09T07:45:20.665Z,64.43
2019-05-09T07:47:47.875Z,64.39
2019-05-09T07:50:14.228Z,65.13
2019-05-09T07:52:40.230Z,65.42
2019-05-09T07:55:08.517Z,65.53
2019-05-09T07:57:34.398Z,65.23
2019-05-09T08:00:00.509Z,65.06
2019-05-09T08:02:28.222Z,64.05
2019-05-09T08:04:54.577Z,63.86
2019-05-09T08:07:20.635Z,63.69
2019-05-09T08:09:47.568Z,64.52
2019-05-09T08:12:13.746Z,64.73
2019-05-09T08:14:39.755Z,64.33
2019-05-09T08:17:08.405Z,64.39
2019-05-09T08:19:33.705Z,64.39
2019-05-09T08:21:59.638Z,64.61
2019-05-09T08:24:27.820Z,65.00
2019-05-09T08:26:53.555Z,65.25
2019-05-09T08:29:20.026Z,64.72
2019-05-09T08:31:48.575Z,64.93
2019-05-09T08:34:14.335Z,64.82
2019-05-09T08:36:40.442Z,64.93
2019-05-09T08:39:08.297Z,65.37
2019-05-09T08:41:34.474Z,65.45
2019-05-09T08:44:00.566Z,64.80
2019-05-09T08:46:28.623Z,64.61
2019-05-09T08:48:57.397Z,64.91
2019-05-09T08:51:36.983Z,65.29
2019-05-09T08:53:57.711Z,65.18
2019-05-09T08:56:23.486Z,65.44
2019-05-09T08:58:49.603Z,65.37
2019-05-09T09:01:27.298Z,65.68
2019-05-09T09:03:43.808Z,65.39
2019-05-09T09:06:09.915Z,65.60
2019-05-09T09:08:38.009Z,65.56
2019-05-09T09:11:04.014Z,64.91
2019-05-09T09:13:30.119Z,65.24
2019-05-09T09:16:12.081Z,65.64
2019-05-09T09:18:24.044Z,65.62
2019-05-09T09:20:50.148Z,64.46
2019-05-09T09:23:18.058Z,64.74
2019-05-09T09:25:44.264Z,64.51
2019-05-09T09:28:10.376Z,64.96
2019-05-09T09:30:38.546Z,65.25
2019-05-09T09:33:04.932Z,65.71
2019-05-09T09:35:31.065Z,65.12
2019-05-09T09:37:58.075Z,65.80
2019-05-09T09:40:24.388Z,65.54
2019-05-09T09:42:50.393Z,65.52
2019-05-09T09:45:18.332Z,65.25
2019-05-09T09:47:44.536Z,65.79
2019-05-09T09:50:11.140Z,66.07
2019-05-09T09:52:38.429Z,65.95
2019-05-09T09:55:05.791Z,65.64
2019-05-09T09:57:31.908Z,65.50
2019-05-09T09:59:59.839Z,65.63
2019-05-09T10:02:30.623Z,65.61
2019-05-09T10:04:56.675Z,65.99
2019-05-09T10:07:22.782Z,66.24
2019-05-09T10:09:48.992Z,66.33
2019-05-09T10:12:15.171Z,65.86
2019-05-09T10:14:43.604Z,65.69
2019-05-09T10:17:28.202Z,66.23
2019-05-09T10:19:56.267Z,65.39
2019-05-09T10:22:27.250Z,64.65
2019-05-09T10:24:53.430Z,65.05
2019-05-09T10:27:20.015Z,64.05
2019-05-09T10:29:48.017Z,63.83
2019-05-09T10:32:18.210Z,63.62
2019-05-09T10:34:43.984Z,62.51
2019-05-09T10:37:10.141Z,62.51
2019-05-09T10:39:38.113Z,62.62
2019-05-09T10:42:22.558Z,61.72
2019-05-09T10:44:50.569Z,60.56
2019-05-09T10:47:24.439Z,59.82
2019-05-09T10:49:50.440Z,59.49
2019-05-09T10:52:18.223Z,60.25
2019-05-09T10:54:44.461Z,59.38
2019-05-09T10:57:10.570Z,59.04
2019-05-09T10:59:37.692Z,59.20
2019-05-09T11:02:05.155Z,58.61
2019-05-09T11:04:31.164Z,58.81
2019-05-09T11:06:58.292Z,59.20
2019-05-09T11:09:24.617Z,59.26
2019-05-09T11:11:50.629Z,58.03
2019-05-09T11:14:32.147Z,58.20
2019-05-09T11:16:49.035Z,57.57
2019-05-09T11:19:12.612Z,57.87
2019-05-09T11:21:39.325Z,58.38
2019-05-09T11:24:08.133Z,58.49
2019-05-09T11:26:33.436Z,58.22
2019-05-09T11:28:59.557Z,58.63
2019-05-09T11:31:25.577Z,58.22
2019-05-09T11:33:51.609Z,58.22
2019-05-09T11:36:21.092Z,57.90
2019-05-09T11:38:45.738Z,57.84
2019-05-09T11:41:11.793Z,58.22
2019-05-09T11:43:38.951Z,57.48
2019-05-09T11:46:05.302Z,58.47
2019-05-09T11:48:31.318Z,58.47
2019-05-09T11:50:58.014Z,58.06
2019-05-09T11:53:25.000Z,57.40
2019-05-09T11:55:54.369Z,58.46
2019-05-09T11:58:20.486Z,58.46
2019-05-09T12:00:48.286Z,58.62
2019-05-09T12:03:14.511Z,59.21
2019-05-09T12:05:40.521Z,58.94
2019-05-09T12:08:08.392Z,58.85
2019-05-09T12:10:34.692Z,58.79
2019-05-09T12:13:00.790Z,58.41
2019-05-09T12:15:29.091Z,58.52
2019-05-09T12:18:01.580Z,57.60
2019-05-09T12:20:22.779Z,57.89
2019-05-09T12:22:48.690Z,57.86
2019-05-09T12:25:14.695Z,57.66
2019-05-09T12:27:40.743Z,57.37
2019-05-09T12:30:07.249Z,57.14
2019-05-09T12:32:33.254Z,56.96
2019-05-09T12:34:59.296Z,56.71
2019-05-09T12:37:25.406Z,57.16
2019-05-09T12:39:52.006Z,56.59
2019-05-09T12:42:18.745Z,56.25
2019-05-09T12:44:45.615Z,56.69
2019-05-09T12:47:12.773Z,57.00
2019-05-09T12:49:38.774Z,56.60
2019-05-09T12:52:04.880Z,56.72
2019-05-09T12:54:30.892Z,56.30
2019-05-09T12:56:59.138Z,56.28
2019-05-09T12:59:24.816Z,55.94
2019-05-09T13:01:50.819Z,55.95
2019-05-09T13:04:16.839Z,56.46
2019-05-09T13:06:42.840Z,56.38
2019-05-09T13:09:08.965Z,56.04
2019-05-09T13:11:34.864Z,56.78
2019-05-09T13:14:00.881Z,56.67
2019-05-09T13:16:44.227Z,56.02
2019-05-09T13:21:39.563Z,56.68
2019-05-09T13:24:08.113Z,56.87
2019-05-09T13:26:33.617Z,57.34
2019-05-09T13:29:00.303Z,57.72
2019-05-09T13:31:29.514Z,57.43
2019-05-09T13:33:54.822Z,57.09
2019-05-09T13:36:20.830Z,57.82
2019-05-09T13:38:57.597Z,57.19
2019-05-09T13:41:14.944Z,56.37
2019-05-09T13:43:47.638Z,57.09
2019-05-09T13:46:09.111Z,56.40
2019-05-09T13:48:57.291Z,56.89
2019-05-09T13:51:03.180Z,56.97
2019-05-09T13:53:29.105Z,56.84
2019-05-09T13:55:57.655Z,57.28
2019-05-09T13:58:23.272Z,57.29
2019-05-09T14:00:58.969Z,57.21
2019-05-09T14:03:18.108Z,57.47
2019-05-09T14:05:44.480Z,57.32
2019-05-09T14:08:11.728Z,57.09
2019-05-09T14:10:38.786Z,56.92
2019-05-09T14:13:10.065Z,57.12
2019-05-09T14:15:33.134Z,57.16
2019-05-09T14:17:59.269Z,56.99
2019-05-09T14:20:27.172Z,57.29
2019-05-09T14:22:53.435Z,57.70
2019-05-09T14:25:19.948Z,57.97
2019-05-09T14:27:49.708Z,58.11
2019-05-09T14:30:14.100Z,57.48
2019-05-09T14:32:40.455Z,57.73
2019-05-09T14:35:08.519Z,58.55
2019-05-09T14:37:34.660Z,58.06
2019-05-09T14:40:04.434Z,58.53
2019-05-09T14:42:29.129Z,58.80
2019-05-09T14:44:55.199Z,58.84
2019-05-09T14:47:21.311Z,58.75
2019-05-09T14:49:49.746Z,58.97
2019-05-09T14:52:15.230Z,59.32
2019-05-09T14:54:41.231Z,59.51
2019-05-09T14:57:09.704Z,59.75
2019-05-09T14:59:35.408Z,59.52
2019-05-09T15:02:01.408Z,59.87
2019-05-09T15:04:27.924Z,59.81
2019-05-09T15:06:54.020Z,59.90
2019-05-09T15:09:20.126Z,60.14
2019-05-09T15:11:48.425Z,60.25
2019-05-09T15:14:14.236Z,60.28
2019-05-09T15:16:40.255Z,60.77
2019-05-09T15:19:08.363Z,60.85
2019-05-09T15:21:34.290Z,61.62
2019-05-09T15:24:00.218Z,62.01
2019-05-09T15:26:27.570Z,62.66
2019-05-09T15:28:53.748Z,62.88
2019-05-09T15:31:19.855Z,63.06
2019-05-09T15:33:48.426Z,63.57
2019-05-09T15:36:13.774Z,63.81
2019-05-09T15:38:39.878Z,63.81
2019-05-09T15:41:12.014Z,63.78
2019-05-09T15:43:34.184Z,64.26
2019-05-09T15:46:02.190Z,64.27
2019-05-09T15:48:28.219Z,64.36
2019-05-09T15:50:54.228Z,64.75
2019-05-09T15:53:20.374Z,65.27
2019-05-09T15:55:48.067Z,65.21
2019-05-09T15:58:14.295Z,65.48
2019-05-09T16:00:40.449Z,65.53
2019-05-09T16:03:06.441Z,66.12
2019-05-09T16:05:32.577Z,66.83
2019-05-09T16:07:58.720Z,67.36
2019-05-09T16:10:24.723Z,67.56
2019-05-09T16:12:50.827Z,67.77
2019-05-09T16:15:18.284Z,67.89
2019-05-09T16:17:44.538Z,68.15
2019-05-09T16:20:10.651Z,68.49
2019-05-09T16:22:39.179Z,68.09
2019-05-09T16:25:06.195Z,68.26
2019-05-09T16:27:32.252Z,68.48
2019-05-09T16:29:58.337Z,69.22
2019-05-09T16:32:24.442Z,69.72
2019-05-09T16:34:50.554Z,70.20
2019-05-09T16:37:16.664Z,70.17
2019-05-09T16:39:42.779Z,70.64
2019-05-09T16:42:08.791Z,70.69
2019-05-09T16:44:34.931Z,70.76
2019-05-09T16:47:01.030Z,70.63
2019-05-09T16:49:29.325Z,70.63
2019-05-09T16:51:55.149Z,70.79
2019-05-09T16:54:23.006Z,71.37
2019-05-09T16:56:49.006Z,71.61
2019-05-09T16:59:17.546Z,72.17
2019-05-09T17:01:46.673Z,72.04
2019-05-09T17:04:11.738Z,71.65
2019-05-09T17:06:38.280Z,72.00
2019-05-09T17:09:04.555Z,72.39
2019-05-09T17:11:30.597Z,72.66
2019-05-09T17:13:58.363Z,72.76
2019-05-09T17:16:24.762Z,72.86
2019-05-09T17:18:50.840Z,73.19
2019-05-09T17:21:24.131Z,73.34
2019-05-09T17:23:47.743Z,73.29
2019-05-09T17:26:13.859Z,73.76
2019-05-09T17:28:39.866Z,73.75
2019-05-09T17:31:07.935Z,73.97
2019-05-09T17:33:34.137Z,74.02
2019-05-09T17:36:00.147Z,74.17
2019-05-09T17:38:27.877Z,74.35
2019-05-09T17:40:54.163Z,74.44
2019-05-09T17:43:20.286Z,74.78
2019-05-09T17:45:47.823Z,74.64
2019-05-09T17:48:14.194Z,74.69
2019-05-09T17:50:40.295Z,74.92
2019-05-09T17:53:08.428Z,74.96
2019-05-09T17:55:34.364Z,74.96
2019-05-09T17:58:00.389Z,75.10
2019-05-09T18:00:27.970Z,75.24
2019-05-09T18:02:54.239Z,75.28
2019-05-09T18:05:20.376Z,75.26
2019-05-09T18:07:48.523Z,75.25
2019-05-09T18:10:14.823Z,75.81
2019-05-09T18:12:40.930Z,75.75
2019-05-09T18:15:07.746Z,75.83
2019-05-09T18:17:33.886Z,75.99
2019-05-09T18:20:02.436Z,75.97
2019-05-09T18:22:28.578Z,76.00
2019-05-09T18:24:54.674Z,76.16
2019-05-09T18:27:20.793Z,76.34
2019-05-09T18:29:47.483Z,76.53
2019-05-09T18:32:15.714Z,76.54
2019-05-09T18:34:41.875Z,76.40
2019-05-09T18:37:08.243Z,76.55
2019-05-09T18:39:34.295Z,76.68
2019-05-09T18:42:00.406Z,76.79
2019-05-09T18:44:27.528Z,76.85
2019-05-09T18:47:02.425Z,77.17
2019-05-09T18:49:28.514Z,77.08
2019-05-09T18:52:03.252Z,77.13
2019-05-09T18:54:22.522Z,77.41
2019-05-09T18:56:48.525Z,77.69
2019-05-09T18:59:15.322Z,77.69
2019-05-09T19:01:41.346Z,77.51
2019-05-09T19:04:07.608Z,77.38
2019-05-09T19:06:33.751Z,77.52
2019-05-09T19:08:59.785Z,77.52
2019-05-09T19:11:25.843Z,77.42
2019-05-09T19:13:51.829Z,77.25
2019-05-09T19:16:19.887Z,77.13
2019-05-09T19:18:47.983Z,77.05
2019-05-09T19:21:15.997Z,77.04
2019-05-09T19:23:42.137Z,77.04
2019-05-09T19:26:09.954Z,77.08
2019-05-09T19:28:36.088Z,77.21
2019-05-09T19:31:02.194Z,77.41
2019-05-09T19:33:28.261Z,77.71
2019-05-09T19:35:54.263Z,77.97
2019-05-09T19:38:20.269Z,77.85
2019-05-09T19:40:46.175Z,78.03
2019-05-09T19:43:12.280Z,77.91
2019-05-09T19:45:38.358Z,77.91
2019-05-09T19:48:04.492Z,77.96
2019-05-09T19:50:31.070Z,77.73
2019-05-09T19:52:57.179Z,77.86
2019-05-09T19:55:23.330Z,78.14
2019-05-09T19:57:49.326Z,78.13
2019-05-09T20:00:15.963Z,78.25
2019-05-09T20:02:42.290Z,78.34
2019-05-09T20:05:08.688Z,78.28
2019-05-09T20:07:34.692Z,78.18
2019-05-09T20:10:11.606Z,78.52
2019-05-09T20:12:45.193Z,78.26
2019-05-09T20:15:13.557Z,78.23
2019-05-09T20:17:39.661Z,78.09
2019-05-09T20:20:05.971Z,77.96
2019-05-09T20:22:31.992Z,78.11
2019-05-09T20:24:57.877Z,78.22
2019-05-09T20:27:23.998Z,78.33
2019-05-09T20:29:50.020Z,78.26
2019-05-09T20:32:16.018Z,78.12
2019-05-09T20:34:42.130Z,78.16
2019-05-09T20:37:08.227Z,78.09
2019-05-09T20:39:34.267Z,78.34
2019-05-09T20:42:00.382Z,78.41
2019-05-09T20:44:26.524Z,78.44
2019-05-09T20:46:52.514Z,78.35
2019-05-09T20:49:18.624Z,78.27
2019-05-09T20:51:44.647Z,78.26
2019-05-09T20:54:20.366Z,78.35
2019-05-09T20:56:38.760Z,78.61
2019-05-09T20:59:04.865Z,78.81
2019-05-09T21:01:30.870Z,78.78
2019-05-09T21:04:00.230Z,78.96
2019-05-09T21:06:24.881Z,79.02
2019-05-09T21:08:50.987Z,79.08
2019-05-09T21:11:16.998Z,78.80
2019-05-09T21:13:48.491Z,78.63
2019-05-09T21:16:10.949Z,78.76
2019-05-09T21:18:37.132Z,78.54
2019-05-09T21:21:03.413Z,78.54
2019-05-09T21:23:29.454Z,78.68
2019-05-09T21:25:55.490Z,78.83
2019-05-09T21:28:21.591Z,78.82
2019-05-09T21:30:47.625Z,78.98
2019-05-09T21:33:13.971Z,78.79
2019-05-09T21:35:40.018Z,78.57
2019-05-09T21:38:06.132Z,78.55
2019-05-09T21:40:32.101Z,78.69
2019-05-09T21:42:58.153Z,79.00
2019-05-09T21:45:24.251Z,79.13
2019-05-09T21:47:50.362Z,79.14
2019-05-09T21:50:16.474Z,79.11
2019-05-09T21:52:42.423Z,79.08
2019-05-09T21:55:08.621Z,79.06
2019-05-09T21:57:34.760Z,78.91
2019-05-09T22:00:00.868Z,78.92
2019-05-09T22:02:27.127Z,78.90
2019-05-09T22:04:53.202Z,78.96
2019-05-09T22:07:19.317Z,79.17
2019-05-09T22:09:45.514Z,79.27
2019-05-09T22:12:11.624Z,79.23
2019-05-09T22:14:37.723Z,79.31
2019-05-09T22:17:08.552Z,79.32
2019-05-09T22:19:34.564Z,79.28
2019-05-09T22:22:00.665Z,79.29
2019-05-09T22:24:26.591Z,79.23
2019-05-09T22:26:52.586Z,79.15
2019-05-09T22:29:18.615Z,79.22
2019-05-09T22:31:44.723Z,79.50
2019-05-09T22:34:10.747Z,79.54
2019-05-09T22:36:36.850Z,79.61
2019-05-09T22:39:05.575Z,79.49
2019-05-09T22:41:31.567Z,79.46
2019-05-09T22:43:57.569Z,79.41
2019-05-09T22:46:23.677Z,79.50
2019-05-09T22:48:49.685Z,79.44
2019-05-09T22:51:15.798Z,79.41
2019-05-09T22:53:41.802Z,79.45
2019-05-09T22:56:07.905Z,79.50
2019-05-09T22:58:34.015Z,79.48
2019-05-09T23:01:00.118Z,79.52
2019-05-09T23:03:26.252Z,79.50
2019-05-09T23:05:52.337Z,79.43
2019-05-09T23:08:18.435Z,79.50
2019-05-09T23:10:44.444Z,79.46
2019-05-09T23:13:10.552Z,79.47
2019-05-09T23:15:36.766Z,79.58
2019-05-09T23:18:02.967Z,79.62
2019-05-09T23:23:23.373Z,79.89
2019-05-09T23:25:49.477Z,79.68
2019-05-09T23:28:15.584Z,79.56
2019-05-09T23:30:41.607Z,79.54
2019-05-09T23:33:07.761Z,79.51
2019-05-09T23:35:33.762Z,79.52
2019-05-09T23:37:59.677Z,79.50
2019-05-09T23:40:25.678Z,79.59
2019-05-09T23:42:51.779Z,79.64
2019-05-09T23:45:17.889Z,79.90
2019-05-09T23:47:44.203Z,79.96
2019-05-09T23:50:10.320Z,80.05
2019-05-09T23:52:36.469Z,79.86
2019-05-09T23:55:21.296Z,79.98
2019-05-09T23:58:06.141Z,80.02
